createdAt,value
2018-08-22T00:00:41.205Z,71.46
2018-08-22T00:03:09.673Z,72.40
2018-08-22T00:05:38.094Z,72.53
2018-08-22T00:08:06.601Z,72.40
2018-08-22T00:10:35.054Z,72.23
2018-08-22T00:13:03.188Z,72.03
2018-08-22T00:15:31.281Z,72.68
2018-08-22T00:17:59.399Z,72.72
2018-08-22T00:20:27.491Z,72.54
2018-08-22T00:22:55.925Z,73.30
2018-08-22T00:25:24.428Z,72.98
2018-08-22T00:27:53.021Z,72.85
2018-08-22T00:30:21.474Z,73.12
2018-08-22T00:32:49.969Z,73.54
2018-08-22T00:35:18.419Z,73.15
2018-08-22T00:37:46.873Z,73.28
2018-08-22T00:40:14.965Z,73.14
2018-08-22T00:42:43.154Z,72.89
2018-08-22T00:45:11.583Z,73.55
2018-08-22T00:47:40.050Z,73.13
2018-08-22T00:50:08.149Z,73.19
2018-08-22T00:52:36.293Z,73.31
2018-08-22T00:55:04.882Z,74.23
2018-08-22T00:57:32.982Z,73.52
2018-08-22T01:00:01.134Z,74.08
2018-08-22T01:02:29.221Z,74.20
2018-08-22T01:04:57.677Z,73.63
2018-08-22T01:07:25.770Z,73.92
2018-08-22T01:09:53.893Z,73.85
2018-08-22T01:12:22.342Z,73.31
2018-08-22T01:14:51.046Z,74.13
2018-08-22T01:17:19.473Z,73.56
2018-08-22T01:19:47.927Z,74.05
2018-08-22T01:22:16.061Z,73.68
2018-08-22T01:24:44.505Z,74.10
2018-08-22T01:27:18.338Z,74.00
2018-08-22T01:29:46.437Z,74.02
2018-08-22T01:32:14.534Z,74.47
2018-08-22T01:34:42.757Z,74.11
2018-08-22T01:37:10.931Z,74.48
2018-08-22T01:39:39.374Z,74.77
2018-08-22T01:42:07.798Z,74.33
2018-08-22T01:44:36.241Z,74.94
2018-08-22T01:47:04.698Z,74.19
2018-08-22T01:49:33.261Z,74.54
2018-08-22T01:52:01.893Z,74.47
2018-08-22T01:54:30.697Z,74.36
2018-08-22T01:56:59.129Z,73.56
2018-08-22T01:59:27.283Z,73.02
2018-08-22T02:01:55.722Z,73.32
2018-08-22T02:04:24.173Z,73.18
2018-08-22T02:06:52.326Z,73.19
2018-08-22T02:09:20.433Z,73.46
2018-08-22T02:11:48.879Z,73.75
2018-08-22T02:14:17.527Z,72.73
2018-08-22T02:16:45.969Z,73.64
2018-08-22T02:19:14.414Z,73.16
2018-08-22T02:21:42.730Z,73.45
2018-08-22T02:24:11.170Z,73.92
2018-08-22T02:26:39.601Z,74.04
2018-08-22T02:29:07.709Z,73.56
2018-08-22T02:31:36.142Z,73.12
2018-08-22T02:34:04.250Z,73.51
2018-08-22T02:36:32.681Z,73.89
2018-08-22T02:39:00.772Z,73.12
2018-08-22T02:41:29.018Z,73.08
2018-08-22T02:43:57.122Z,73.21
2018-08-22T02:46:25.213Z,73.00
2018-08-22T02:48:54.219Z,73.08
2018-08-22T02:51:22.703Z,73.83
2018-08-22T02:53:50.821Z,74.10
2018-08-22T02:56:18.934Z,73.64
2018-08-22T02:58:47.357Z,73.92
2018-08-22T03:01:15.489Z,74.04
2018-08-22T03:03:43.913Z,74.13
2018-08-22T03:06:12.373Z,73.93
2018-08-22T03:08:40.793Z,73.50
2018-08-22T03:11:09.241Z,74.32
2018-08-22T03:13:37.365Z,74.39
2018-08-22T03:16:05.473Z,74.23
2018-08-22T03:18:33.569Z,73.24
2018-08-22T03:21:01.677Z,73.49
2018-08-22T03:23:29.773Z,74.04
2018-08-22T03:25:58.325Z,73.49
2018-08-22T03:28:26.622Z,74.09
2018-08-22T03:30:55.098Z,73.48
2018-08-22T03:33:23.546Z,73.79
2018-08-22T03:35:52.172Z,73.20
2018-08-22T03:38:20.278Z,73.73
2018-08-22T03:40:48.629Z,73.29
2018-08-22T03:43:16.745Z,73.91
2018-08-22T03:45:44.854Z,73.27
2018-08-22T03:48:13.284Z,73.64
2018-08-22T03:50:41.733Z,73.35
2018-08-22T03:53:10.182Z,72.91
2018-08-22T03:55:38.657Z,72.58
2018-08-22T03:58:07.082Z,72.48
2018-08-22T04:00:35.193Z,72.95
2018-08-22T04:03:03.634Z,72.47
2018-08-22T04:05:31.742Z,72.68
2018-08-22T04:07:59.841Z,72.53
2018-08-22T04:10:28.266Z,73.27
2018-08-22T04:12:56.731Z,72.90
2018-08-22T04:15:24.929Z,73.02
2018-08-22T04:17:53.022Z,72.70
2018-08-22T04:20:21.476Z,73.52
2018-08-22T04:22:49.753Z,73.29
2018-08-22T04:25:18.391Z,73.39
2018-08-22T04:27:46.836Z,73.00
2018-08-22T04:30:15.286Z,72.66
2018-08-22T04:32:43.405Z,72.82
2018-08-22T04:35:11.897Z,72.88
2018-08-22T04:37:40.350Z,73.09
2018-08-22T04:40:08.793Z,73.20
2018-08-22T04:42:36.929Z,73.26
2018-08-22T04:45:05.041Z,72.71
2018-08-22T04:47:33.505Z,72.75
2018-08-22T04:50:01.947Z,72.78
2018-08-22T04:52:30.590Z,73.21
2018-08-22T04:54:59.013Z,72.63
2018-08-22T04:57:27.480Z,73.35
2018-08-22T04:59:55.918Z,73.35
2018-08-22T05:02:24.393Z,73.21
2018-08-22T05:04:52.825Z,72.97
2018-08-22T05:07:21.273Z,73.35
2018-08-22T05:09:49.872Z,72.77
2018-08-22T05:12:18.305Z,73.25
2018-08-22T05:14:46.458Z,72.75
2018-08-22T05:17:14.619Z,72.84
2018-08-22T05:19:43.050Z,72.86
2018-08-22T05:22:11.506Z,72.84
2018-08-22T05:24:39.973Z,72.80
2018-08-22T05:27:08.761Z,72.75
2018-08-22T05:29:36.856Z,72.83
2018-08-22T05:32:05.322Z,72.56
2018-08-22T05:34:33.433Z,72.49
2018-08-22T05:37:01.626Z,71.69
2018-08-22T05:39:29.734Z,72.28
2018-08-22T05:41:57.857Z,71.72
2018-08-22T05:44:26.281Z,71.27
2018-08-22T05:46:54.408Z,71.14
2018-08-22T05:49:22.548Z,70.55
2018-08-22T05:51:50.848Z,70.69
2018-08-22T05:54:18.960Z,69.86
2018-08-22T05:56:47.154Z,69.18
2018-08-22T05:59:15.638Z,69.45
2018-08-22T06:01:44.069Z,69.27
2018-08-22T06:04:12.763Z,68.76
2018-08-22T06:06:40.865Z,68.10
2018-08-22T06:09:11.283Z,67.10
2018-08-22T06:11:40.060Z,67.83
2018-08-22T06:14:08.158Z,67.40
2018-08-22T06:16:36.622Z,67.99
2018-08-22T06:19:05.089Z,67.95
2018-08-22T06:21:33.550Z,67.80
2018-08-22T06:24:02.173Z,67.95
2018-08-22T06:26:30.277Z,67.03
2018-08-22T06:28:58.727Z,67.03
2018-08-22T06:31:26.842Z,66.90
2018-08-22T06:33:54.995Z,67.35
2018-08-22T06:36:23.404Z,66.72
2018-08-22T06:38:51.750Z,66.68
2018-08-22T06:41:19.865Z,66.19
2018-08-22T06:43:47.971Z,66.62
2018-08-22T06:46:16.411Z,66.23
2018-08-22T06:48:44.714Z,65.78
2018-08-22T06:51:12.839Z,64.85
2018-08-22T06:53:40.986Z,64.91
2018-08-22T06:56:09.277Z,64.48
2018-08-22T06:58:37.446Z,63.42
2018-08-22T07:01:06.165Z,62.43
2018-08-22T07:03:34.670Z,62.96
2018-08-22T07:06:03.066Z,62.36
2018-08-22T07:08:31.181Z,61.90
2018-08-22T07:10:59.613Z,61.94
2018-08-22T07:13:27.932Z,61.10
2018-08-22T07:15:56.041Z,60.06
2018-08-22T07:18:24.162Z,59.35
2018-08-22T07:20:52.634Z,59.26
2018-08-22T07:23:21.238Z,59.38
2018-08-22T07:25:49.701Z,57.92
2018-08-22T07:28:17.863Z,57.70
2018-08-22T07:30:46.306Z,57.39
2018-08-22T07:33:14.754Z,57.48
2018-08-22T07:35:42.910Z,57.23
2018-08-22T07:38:11.430Z,56.28
2018-08-22T07:40:39.866Z,55.43
2018-08-22T07:43:08.345Z,55.88
2018-08-22T07:45:36.783Z,55.41
2018-08-22T07:48:04.959Z,55.22
2018-08-22T07:50:33.993Z,54.14
2018-08-22T07:53:04.441Z,54.46
2018-08-22T07:55:35.942Z,54.43
2018-08-22T07:58:04.422Z,53.15
2018-08-22T08:00:32.526Z,53.21
2018-08-22T08:03:00.687Z,53.44
2018-08-22T08:05:29.347Z,52.67
2018-08-22T08:07:57.689Z,52.42
2018-08-22T08:10:31.038Z,52.43
2018-08-22T08:12:59.247Z,51.85
2018-08-22T08:15:27.965Z,50.32
2018-08-22T08:17:56.519Z,49.95
2018-08-22T08:20:25.197Z,49.78
2018-08-22T08:22:53.840Z,50.21
2018-08-22T08:25:22.314Z,49.43
2018-08-22T08:27:50.840Z,49.21
2018-08-22T08:30:19.450Z,50.10
2018-08-22T08:32:47.758Z,48.82
2018-08-22T08:35:16.420Z,49.77
2018-08-22T08:37:44.528Z,48.35
2018-08-22T08:40:12.853Z,49.04
2018-08-22T08:42:40.975Z,48.71
2018-08-22T08:45:10.743Z,48.52
2018-08-22T08:47:39.383Z,47.87
2018-08-22T08:50:07.485Z,48.38
2018-08-22T08:52:35.986Z,48.01
2018-08-22T08:55:04.119Z,47.44
2018-08-22T08:57:32.723Z,47.30
2018-08-22T09:00:01.497Z,47.18
2018-08-22T09:02:30.142Z,47.37
2018-08-22T09:04:59.278Z,45.92
2018-08-22T09:07:27.921Z,45.86
2018-08-22T09:09:56.400Z,46.49
2018-08-22T09:12:24.908Z,46.12
2018-08-22T09:14:53.548Z,46.08
2018-08-22T09:17:21.988Z,45.73
2018-08-22T09:19:50.302Z,45.19
2018-08-22T09:22:18.757Z,44.65
2018-08-22T09:24:47.204Z,44.82
2018-08-22T09:27:15.301Z,44.63
2018-08-22T09:29:43.744Z,44.14
2018-08-22T09:32:12.362Z,43.75
2018-08-22T09:34:40.903Z,43.57
2018-08-22T09:37:09.570Z,43.82
2018-08-22T09:39:38.053Z,44.85
2018-08-22T09:42:06.805Z,44.61
2018-08-22T09:44:35.315Z,43.60
2018-08-22T09:47:03.987Z,43.43
2018-08-22T09:49:32.434Z,42.62
2018-08-22T09:52:01.115Z,42.31
2018-08-22T09:54:29.629Z,41.96
2018-08-22T09:56:57.920Z,41.30
2018-08-22T09:59:26.041Z,41.11
2018-08-22T10:01:54.473Z,40.85
2018-08-22T10:04:22.906Z,40.89
2018-08-22T10:06:51.730Z,40.93
2018-08-22T10:09:24.821Z,39.65
2018-08-22T10:11:53.480Z,39.97
2018-08-22T10:14:21.791Z,39.58
2018-08-22T10:16:50.241Z,38.59
2018-08-22T10:19:18.701Z,39.38
2018-08-22T10:21:47.182Z,38.36
2018-08-22T10:24:15.631Z,38.35
2018-08-22T10:26:44.255Z,38.53
2018-08-22T10:29:12.901Z,38.72
2018-08-22T10:31:41.281Z,37.92
2018-08-22T10:34:10.201Z,38.88
2018-08-22T10:36:38.643Z,37.78
2018-08-22T10:39:08.219Z,37.17
2018-08-22T10:41:36.934Z,36.57
2018-08-22T10:44:05.269Z,36.88
2018-08-22T10:46:33.865Z,36.93
2018-08-22T10:49:01.960Z,36.38
2018-08-22T10:51:30.415Z,36.26
2018-08-22T10:53:58.622Z,35.62
2018-08-22T10:56:27.225Z,36.31
2018-08-22T10:58:55.669Z,36.43
2018-08-22T11:01:24.113Z,35.13
2018-08-22T11:03:52.358Z,34.77
2018-08-22T11:06:20.693Z,35.65
2018-08-22T11:08:49.130Z,34.98
2018-08-22T11:11:17.565Z,35.14
2018-08-22T11:13:45.994Z,34.44
2018-08-22T11:16:14.086Z,34.76
2018-08-22T11:18:42.438Z,34.08
2018-08-22T11:21:21.734Z,33.54
2018-08-22T11:24:01.239Z,33.56
2018-08-22T11:26:40.685Z,34.02
2018-08-22T11:29:20.293Z,34.27
2018-08-22T11:31:59.752Z,33.50
2018-08-22T11:34:39.119Z,34.00
2018-08-22T11:37:09.002Z,34.00
2018-08-22T11:39:37.373Z,37.89
2018-08-22T11:42:06.262Z,36.56
2018-08-22T11:44:34.413Z,34.35
2018-08-22T11:49:44.125Z,34.42
2018-08-22T11:52:12.283Z,35.04
2018-08-22T11:54:41.241Z,34.72
2018-08-22T11:57:09.706Z,34.72
2018-08-22T11:59:37.826Z,34.60
2018-08-22T12:02:06.186Z,35.05
2018-08-22T12:04:34.645Z,34.14
2018-08-22T12:07:03.114Z,33.68
2018-08-22T12:09:31.434Z,33.76
2018-08-22T12:11:59.995Z,32.75
2018-08-22T12:14:28.465Z,33.63
2018-08-22T12:16:56.581Z,33.82
2018-08-22T12:19:25.086Z,33.32
2018-08-22T12:21:53.550Z,32.68
2018-08-22T12:24:22.011Z,32.93
2018-08-22T12:26:50.162Z,33.15
2018-08-22T12:29:18.590Z,32.70
2018-08-22T12:31:46.746Z,33.67
2018-08-22T12:34:15.197Z,33.02
2018-08-22T12:36:43.657Z,32.82
2018-08-22T12:39:12.286Z,33.46
2018-08-22T12:41:40.781Z,33.21
2018-08-22T12:44:09.221Z,32.53
2018-08-22T12:46:37.874Z,33.08
2018-08-22T12:49:06.014Z,32.91
2018-08-22T12:51:34.110Z,33.71
2018-08-22T12:54:02.242Z,32.48
2018-08-22T12:56:30.743Z,32.42
2018-08-22T12:58:58.854Z,33.12
2018-08-22T13:01:27.307Z,33.43
2018-08-22T13:03:55.418Z,33.80
2018-08-22T13:06:23.854Z,33.61
2018-08-22T13:08:52.878Z,33.10
2018-08-22T13:11:21.027Z,33.86
2018-08-22T13:13:49.293Z,33.25
2018-08-22T13:16:17.750Z,33.83
2018-08-22T13:18:45.901Z,33.12
2018-08-22T13:21:14.370Z,32.81
2018-08-22T13:23:43.012Z,33.84
2018-08-22T13:26:11.354Z,33.16
2018-08-22T13:28:39.821Z,33.59
2018-08-22T13:31:07.938Z,34.73
2018-08-22T13:33:36.575Z,34.36
2018-08-22T13:36:05.022Z,32.98
2018-08-22T13:38:33.794Z,33.09
2018-08-22T13:41:01.932Z,32.39
2018-08-22T13:43:30.247Z,32.40
2018-08-22T13:45:58.729Z,33.30
2018-08-22T13:48:27.167Z,33.32
2018-08-22T13:50:55.591Z,32.00
2018-08-22T13:53:24.161Z,31.97
2018-08-22T13:55:52.844Z,32.09
2018-08-22T13:58:21.474Z,32.22
2018-08-22T14:00:50.029Z,32.12
2018-08-22T14:03:18.538Z,31.92
2018-08-22T14:05:46.982Z,31.73
2018-08-22T14:08:15.666Z,32.00
2018-08-22T14:10:44.110Z,32.95
2018-08-22T14:13:12.236Z,32.91
2018-08-22T14:15:40.529Z,33.23
2018-08-22T14:18:08.654Z,33.81
2018-08-22T14:20:37.118Z,34.56
2018-08-22T14:23:05.996Z,35.35
2018-08-22T14:25:34.433Z,34.84
2018-08-22T14:28:02.883Z,33.67
2018-08-22T14:30:31.170Z,34.34
2018-08-22T14:32:59.286Z,33.74
2018-08-22T14:35:27.734Z,34.27
2018-08-22T14:37:55.881Z,34.92
2018-08-22T14:40:24.350Z,35.99
2018-08-22T14:42:52.786Z,35.01
2018-08-22T14:45:21.258Z,35.40
2018-08-22T14:47:49.382Z,35.61
2018-08-22T14:50:18.111Z,35.68
2018-08-22T14:52:46.238Z,35.16
2018-08-22T14:55:14.942Z,35.94
2018-08-22T14:57:45.515Z,35.36
2018-08-22T15:00:13.986Z,34.36
2018-08-22T15:02:42.921Z,33.81
2018-08-22T15:05:11.790Z,33.52
2018-08-22T15:07:40.509Z,34.02
2018-08-22T15:10:08.942Z,34.19
2018-08-22T15:12:38.020Z,34.14
2018-08-22T15:15:06.924Z,33.26
2018-08-22T15:17:35.045Z,33.12
2018-08-22T15:20:03.750Z,32.56
2018-08-22T15:22:32.250Z,32.00
2018-08-22T15:25:00.711Z,31.79
2018-08-22T15:27:29.207Z,31.50
2018-08-22T15:29:57.702Z,31.65
2018-08-22T15:32:26.639Z,32.28
2018-08-22T15:34:56.425Z,32.23
2018-08-22T15:37:25.255Z,32.32
2018-08-22T15:39:53.843Z,33.99
2018-08-22T15:42:21.965Z,33.24
2018-08-22T15:44:50.235Z,32.86
2018-08-22T15:47:18.771Z,33.43
2018-08-22T15:49:47.547Z,33.69
2018-08-22T15:52:15.921Z,33.85
2018-08-22T15:54:56.466Z,34.23
2018-08-22T15:57:24.574Z,35.65
2018-08-22T15:59:53.038Z,35.31
2018-08-22T16:02:21.487Z,35.60
2018-08-22T16:04:54.114Z,35.35
2018-08-22T16:07:22.255Z,34.49
2018-08-22T16:09:50.374Z,34.29
2018-08-22T16:12:18.835Z,34.78
2018-08-22T16:14:47.286Z,34.75
2018-08-22T16:17:15.749Z,34.44
2018-08-22T16:19:44.203Z,34.24
2018-08-22T16:22:12.642Z,34.39
2018-08-22T16:24:42.374Z,35.13
2018-08-22T16:27:10.809Z,34.04
2018-08-22T16:29:38.937Z,35.71
2018-08-22T16:32:07.102Z,35.09
2018-08-22T16:34:35.566Z,35.49
2018-08-22T16:37:03.909Z,35.41
2018-08-22T16:39:39.766Z,35.18
2018-08-22T16:42:08.693Z,37.28
2018-08-22T16:44:37.154Z,36.15
2018-08-22T16:47:05.450Z,36.76
2018-08-22T16:49:34.216Z,36.36
2018-08-22T16:52:02.514Z,37.41
2018-08-22T16:54:31.024Z,37.51
2018-08-22T16:56:59.230Z,37.14
2018-08-22T16:59:27.760Z,36.80
2018-08-22T17:01:55.985Z,37.65
2018-08-22T17:04:24.286Z,37.77
2018-08-22T17:06:52.445Z,37.38
2018-08-22T17:09:21.086Z,38.61
2018-08-22T17:11:49.761Z,38.52
2018-08-22T17:14:18.121Z,38.16
2018-08-22T17:16:46.925Z,38.28
2018-08-22T17:19:15.396Z,39.52
2018-08-22T17:21:43.621Z,39.41
2018-08-22T17:24:12.274Z,39.43
2018-08-22T17:26:40.725Z,39.24
2018-08-22T17:29:09.250Z,39.38
2018-08-22T17:31:37.361Z,38.70
2018-08-22T17:34:06.391Z,39.26
2018-08-22T17:36:34.494Z,39.45
2018-08-22T17:39:03.569Z,39.52
2018-08-22T17:41:31.703Z,39.78
2018-08-22T17:44:05.884Z,39.72
2018-08-22T17:46:36.822Z,40.33
2018-08-22T17:49:05.019Z,39.46
2018-08-22T17:51:43.622Z,40.10
2018-08-22T17:54:12.094Z,40.73
2018-08-22T17:56:40.542Z,40.67
2018-08-22T17:59:09.011Z,41.06
2018-08-22T18:01:37.238Z,41.07
2018-08-22T18:04:05.707Z,41.46
2018-08-22T18:06:34.158Z,42.03
2018-08-22T18:09:03.725Z,41.49
2018-08-22T18:11:32.171Z,42.74
2018-08-22T18:14:00.399Z,42.90
2018-08-22T18:16:28.667Z,43.39
2018-08-22T18:18:57.137Z,43.83
2018-08-22T18:21:32.866Z,45.03
2018-08-22T18:24:01.442Z,44.41
2018-08-22T18:26:30.084Z,44.66
2018-08-22T18:28:58.574Z,45.72
2018-08-22T18:31:27.041Z,45.71
2018-08-22T18:33:59.080Z,45.63
2018-08-22T18:36:28.778Z,45.11
2018-08-22T18:39:07.282Z,46.52
2018-08-22T18:41:35.899Z,46.52
2018-08-22T18:44:04.622Z,47.43
2018-08-22T18:46:33.077Z,47.58
2018-08-22T18:49:02.991Z,47.35
2018-08-22T18:51:31.631Z,47.83
2018-08-22T18:54:00.753Z,48.53
2018-08-22T18:56:28.899Z,48.65
2018-08-22T18:58:57.394Z,49.17
2018-08-22T19:01:25.548Z,48.62
2018-08-22T19:03:56.541Z,48.28
2018-08-22T19:06:25.043Z,49.01
2018-08-22T19:08:53.486Z,48.99
2018-08-22T19:11:22.472Z,48.83
2018-08-22T19:13:50.586Z,48.51
2018-08-22T19:16:19.330Z,49.79
2018-08-22T19:18:47.793Z,49.96
2018-08-22T19:21:16.276Z,50.07
2018-08-22T19:23:45.521Z,49.76
2018-08-22T19:26:14.453Z,51.13
2018-08-22T19:28:53.993Z,51.11
2018-08-22T19:31:22.641Z,50.57
2018-08-22T19:33:50.754Z,51.74
2018-08-22T19:36:19.202Z,51.52
2018-08-22T19:38:47.662Z,51.57
2018-08-22T19:41:23.541Z,52.64
2018-08-22T19:43:51.710Z,52.13
2018-08-22T19:46:20.187Z,51.56
2018-08-22T19:48:49.235Z,51.55
2018-08-22T19:51:17.541Z,51.61
2018-08-22T19:53:59.053Z,52.32
2018-08-22T19:56:28.307Z,52.30
2018-08-22T19:58:56.835Z,51.93
2018-08-22T20:01:25.286Z,52.28
2018-08-22T20:03:55.151Z,52.69
2018-08-22T20:06:24.301Z,53.65
2018-08-22T20:08:55.030Z,53.85
2018-08-22T20:11:23.362Z,53.06
2018-08-22T20:13:54.774Z,53.29
2018-08-22T20:16:23.818Z,53.81
2018-08-22T20:18:58.801Z,55.04
2018-08-22T20:21:29.947Z,55.37
2018-08-22T20:23:58.531Z,55.22
2018-08-22T20:26:27.717Z,55.32
2018-08-22T20:28:57.366Z,56.47
2018-08-22T20:31:25.820Z,56.97
2018-08-22T20:34:03.018Z,57.20
2018-08-22T20:36:32.093Z,56.80
2018-08-22T20:39:03.918Z,56.73
2018-08-22T20:41:32.386Z,58.05
2018-08-22T20:44:00.509Z,57.59
2018-08-22T20:46:28.991Z,57.06
2018-08-22T20:48:57.478Z,57.78
2018-08-22T20:51:25.925Z,57.62
2018-08-22T20:53:59.477Z,57.90
2018-08-22T20:56:27.646Z,58.81
2018-08-22T20:58:55.757Z,58.06
2018-08-22T21:01:23.899Z,57.95
2018-08-22T21:03:52.002Z,58.80
2018-08-22T21:06:20.150Z,57.94
2018-08-22T21:08:48.291Z,59.58
2018-08-22T21:11:16.614Z,59.55
2018-08-22T21:13:44.797Z,60.48
2018-08-22T21:16:13.474Z,60.69
2018-08-22T21:18:41.825Z,61.11
2018-08-22T21:21:14.985Z,61.83
2018-08-22T21:23:43.101Z,61.82
2018-08-22T21:26:12.571Z,62.38
2018-08-22T21:28:42.697Z,61.70
2018-08-22T21:31:11.165Z,61.71
2018-08-22T21:33:39.313Z,62.36
2018-08-22T21:36:07.438Z,62.03
2018-08-22T21:38:35.889Z,62.34
2018-08-22T21:41:04.385Z,62.71
2018-08-22T21:43:32.767Z,63.42
2018-08-22T21:46:01.210Z,62.96
2018-08-22T21:48:29.338Z,63.16
2018-08-22T21:50:57.470Z,63.23
2018-08-22T21:53:25.608Z,63.22
2018-08-22T21:55:54.078Z,62.76
2018-08-22T21:58:22.534Z,63.18
2018-08-22T22:00:51.458Z,62.80
2018-08-22T22:03:25.406Z,63.44
2018-08-22T22:05:57.018Z,64.63
2018-08-22T22:08:25.566Z,64.31
2018-08-22T22:11:04.123Z,65.25
2018-08-22T22:13:32.650Z,65.34
2018-08-22T22:16:03.486Z,66.10
2018-08-22T22:18:32.963Z,66.08
2018-08-22T22:21:07.930Z,66.91
2018-08-22T22:23:42.722Z,66.84
2018-08-22T22:26:11.034Z,66.79
2018-08-22T22:28:40.073Z,67.70
2018-08-22T22:31:11.645Z,68.18
2018-08-22T22:33:46.513Z,68.57
2018-08-22T22:36:15.487Z,68.65
2018-08-22T22:38:43.942Z,68.35
2018-08-22T22:41:12.391Z,68.57
2018-08-22T22:43:41.226Z,69.02
2018-08-22T22:46:09.718Z,69.35
2018-08-22T22:48:39.706Z,69.09
2018-08-22T22:51:08.727Z,70.28
2018-08-22T22:53:37.330Z,69.79
2018-08-22T22:56:06.100Z,69.97
2018-08-22T22:58:35.106Z,69.78
2018-08-22T23:01:03.245Z,70.28
2018-08-22T23:03:31.901Z,69.96
2018-08-22T23:06:00.022Z,70.80
2018-08-22T23:08:28.154Z,70.53
2018-08-22T23:10:56.778Z,70.67
2018-08-22T23:13:25.962Z,70.22
2018-08-22T23:15:54.437Z,70.77
2018-08-22T23:18:22.965Z,70.40
2018-08-22T23:20:51.714Z,70.51
2018-08-22T23:23:29.334Z,71.48
2018-08-22T23:26:05.062Z,70.70
2018-08-22T23:28:33.680Z,71.90
2018-08-22T23:31:01.826Z,71.62
2018-08-22T23:33:30.308Z,71.42
2018-08-22T23:35:58.779Z,71.55
2018-08-22T23:38:33.209Z,71.21
2018-08-22T23:41:02.778Z,72.22
2018-08-22T23:43:36.825Z,71.80
2018-08-22T23:46:06.542Z,72.00
2018-08-22T23:48:35.634Z,73.06
2018-08-22T23:51:05.349Z,72.32
2018-08-22T23:53:41.690Z,72.29
2018-08-22T23:56:17.303Z,73.00
2018-08-22T23:58:46.357Z,73.65
